Time;durP1;ratioP1;P1;durP2;ratioP2;P2;SDS_P1;SDS_P2;PMS_P1;PMS_P2;Temp;Humidity;BMP_temperature;BMP_pressure;BME280_temperature;BME280_humidity;BME280_pressure;Samples;Min_cycle;Max_cycle;Signal;HPM_P1;HPM_P2
2023/04/21 00:00:51;;;;;;;;;;;;;;;;;;4350099;33;20057;-76
2023/04/21 00:03:18;;;;;;;;;;;;;;;;;;4348521;33;19953;-77
2023/04/21 00:05:43;;;;;;;;;;;;;;;;;;4348582;33;19965;-76
2023/04/21 00:08:08;;;;;;;;;;;;;;;;;;4348519;33;19943;-76
2023/04/21 00:10:33;;;;;;;;;;;;;;;;;;4349794;33;19934;-76
2023/04/21 00:12:58;;;;;;;;;;;;;;;;;;4349207;33;19943;-76
2023/04/21 00:15:24;;;;;;;;;;;;;;;;;;4347132;33;20005;-77
2023/04/21 00:17:49;;;;;;;;;;;;;;;;;;4348041;33;19942;-77
2023/04/21 00:20:14;;;;;;;;;;;;;;;;;;4349183;33;20292;-76
2023/04/21 00:22:39;;;;;;;;;;;;;;;;;;4347631;33;19946;-77
2023/04/21 00:25:05;;;;;;;;;;;;;;;;;;4347868;33;19978;-77
2023/04/21 00:27:30;;;;;;;;;;;;;;;;;;4348902;33;19982;-78
2023/04/21 00:29:55;;;;;;;;;;;;;;;;;;4349128;33;19939;-78
2023/04/21 00:32:20;;;;;;;;;;;;;;;;;;4349670;33;20018;-78
2023/04/21 00:34:45;;;;;;;;;;;;;;;;;;4352227;33;20108;-78
2023/04/21 00:37:10;;;;;;;;;;;;;;;;;;4350056;33;19954;-79
2023/04/21 00:39:35;;;;;;;;;;;;;;;;;;4347842;33;19935;-77
2023/04/21 00:42:01;;;;;;;;;;;;;;;;;;4348193;33;19970;-79
2023/04/21 00:44:26;;;;;;;;;;;;;;;;;;4347754;33;19953;-78
2023/04/21 00:46:51;;;;;;;;;;;;;;;;;;4347369;33;19974;-78
2023/04/21 00:49:16;;;;;;;;;;;;;;;;;;4347892;33;19950;-79
2023/04/21 00:51:41;;;;;;;;;;;;;;;;;;4347929;33;19992;-79
2023/04/21 00:54:06;;;;;;;;;;;;;;;;;;4348769;33;19958;-77
2023/04/21 00:56:31;;;;;;;;;;;;;;;;;;4348168;33;19970;-79
2023/04/21 00:58:56;;;;;;;;;;;;;;;;;;4347896;33;19939;-78
2023/04/21 01:01:22;;;;;;;;;;;;;;;;;;4347742;33;19950;-78
2023/04/21 01:03:47;;;;;;;;;;;;;;;;;;4347307;33;19935;-78
2023/04/21 01:06:12;;;;;;;;;;;;;;;;;;4347539;33;19951;-77
2023/04/21 01:08:37;;;;;;;;;;;;;;;;;;4347912;33;20253;-77
2023/04/21 01:11:02;;;;;;;;;;;;;;;;;;4349272;33;19969;-77
2023/04/21 01:13:27;;;;;;;;;;;;;;;;;;4348135;33;19943;-78
2023/04/21 01:15:52;;;;;;;;;;;;;;;;;;4347532;33;19977;-77
2023/04/21 01:18:18;;;;;;;;;;;;;;;;;;4346089;33;19938;-77
2023/04/21 01:20:43;;;;;;;;;;;;;;;;;;4345858;32;20260;-77
2023/04/21 01:23:08;;;;;;;;;;;;;;;;;;4347285;33;19938;-77
2023/04/21 01:25:33;;;;;;;;;;;;;;;;;;4347701;33;20280;-76
2023/04/21 01:27:59;;;;;;;;;;;;;;;;;;4348238;33;19977;-76
2023/04/21 01:30:24;;;;;;;;;;;;;;;;;;4346325;33;19939;-77
2023/04/21 01:32:49;;;;;;;;;;;;;;;;;;4347587;33;20018;-77
2023/04/21 01:35:14;;;;;;;;;;;;;;;;;;4347435;33;19989;-77
2023/04/21 01:37:39;;;;;;;;;;;;;;;;;;4348495;33;19976;-76
2023/04/21 01:40:04;;;;;;;;;;;;;;;;;;4347156;33;20041;-76
2023/04/21 01:42:29;;;;;;;;;;;;;;;;;;4347217;33;19959;-76
2023/04/21 01:44:55;;;;;;;;;;;;;;;;;;4347606;33;19935;-76
2023/04/21 01:47:20;;;;;;;;;;;;;;;;;;4347684;33;19974;-76
2023/04/21 01:49:45;;;;;;;;;;;;;;;;;;4345848;33;19942;-76
2023/04/21 01:52:10;;;;;;;;;;;;;;;;;;4346707;33;19977;-76
2023/04/21 01:54:35;;;;;;;;;;;;;;;;;;4347195;33;19943;-77
2023/04/21 01:57:01;;;;;;;;;;;;;;;;;;4347426;33;19995;-76
2023/04/21 01:59:26;;;;;;;;;;;;;;;;;;4346496;33;19942;-75
2023/04/21 02:01:51;;;;;;;;;;;;;;;;;;4347358;33;20316;-77
2023/04/21 02:04:16;;;;;;;;;;;;;;;;;;4347108;33;19955;-77
2023/04/21 02:06:41;;;;;;;;;;;;;;;;;;4347078;33;19988;-78
2023/04/21 02:09:06;;;;;;;;;;;;;;;;;;4345145;33;19953;-77
2023/04/21 02:11:31;;;;;;;;;;;;;;;;;;4346787;33;20022;-77
2023/04/21 02:13:56;;;;;;;;;;;;;;;;;;4347423;33;19993;-77
2023/04/21 02:16:25;;;;;;;;;;;;;;;;;;4347048;33;19947;-77
2023/04/21 02:18:50;;;;;;;;;;;;;;;;;;4345062;32;19939;-76
2023/04/21 02:21:15;;;;;;;;;;;;;;;;;;4346367;33;19974;-76
2023/04/21 02:23:40;;;;;;;;;;;;;;;;;;4347679;33;19943;-76
2023/04/21 02:26:05;;;;;;;;;;;;;;;;;;4347148;33;19973;-77
2023/04/21 02:28:30;;;;;;;;;;;;;;;;;;4346660;33;19970;-77
2023/04/21 02:30:55;;;;;;;;;;;;;;;;;;4345205;33;19991;-76
2023/04/21 02:33:20;;;;;;;;;;;;;;;;;;4345683;33;19973;-77
2023/04/21 02:35:46;;;;;;;;;;;;;;;;;;4345401;33;19981;-76
2023/04/21 02:38:11;;;;;;;;;;;;;;;;;;4346429;33;20117;-77
2023/04/21 02:40:36;;;;;;;;;;;;;;;;;;4345447;33;19943;-76
2023/04/21 02:43:02;;;;;;;;;;;;;;;;;;4346218;33;19958;-77
2023/04/21 02:45:27;;;;;;;;;;;;;;;;;;4345865;33;19942;-76
2023/04/21 02:47:52;;;;;;;;;;;;;;;;;;4344721;33;19939;-76
2023/04/21 02:50:17;;;;;;;;;;;;;;;;;;4346395;33;20264;-77
2023/04/21 02:52:42;;;;;;;;;;;;;;;;;;4346034;33;19950;-77
2023/04/21 02:55:07;;;;;;;;;;;;;;;;;;4346727;33;19965;-77
2023/04/21 02:57:32;;;;;;;;;;;;;;;;;;4346531;33;19935;-77
2023/04/21 02:59:57;;;;;;;;;;;;;;;;;;4346936;33;19949;-76
2023/04/21 03:02:23;;;;;;;;;;;;;;;;;;4346552;33;20289;-77
2023/04/21 03:04:48;;;;;;;;;;;;;;;;;;4345586;33;19969;-77
2023/04/21 03:07:13;;;;;;;;;;;;;;;;;;4347024;33;19950;-77
2023/04/21 03:09:38;;;;;;;;;;;;;;;;;;4345984;33;19943;-77
2023/04/21 03:12:03;;;;;;;;;;;;;;;;;;4346338;33;20022;-77
2023/04/21 03:14:28;;;;;;;;;;;;;;;;;;4346923;33;19977;-77
2023/04/21 03:16:53;;;;;;;;;;;;;;;;;;4347682;33;19939;-77
2023/04/21 03:19:18;;;;;;;;;;;;;;;;;;4355368;33;20292;-77
2023/04/21 03:21:43;;;;;;;;;;;;;;;;;;4346272;33;19938;-77
2023/04/21 03:24:08;;;;;;;;;;;;;;;;;;4346686;33;19953;-76
2023/04/21 03:26:34;;;;;;;;;;;;;;;;;;4346437;33;19939;-77
2023/04/21 03:28:59;;;;;;;;;;;;;;;;;;4345961;33;19949;-76
2023/04/21 03:31:24;;;;;;;;;;;;;;;;;;4345965;33;19951;-76
2023/04/21 03:33:49;;;;;;;;;;;;;;;;;;4345649;33;20331;-76
2023/04/21 03:36:14;;;;;;;;;;;;;;;;;;4345699;33;19986;-76
2023/04/21 03:38:39;;;;;;;;;;;;;;;;;;4345595;33;19997;-76
2023/04/21 03:41:04;;;;;;;;;;;;;;;;;;4347145;33;20001;-76
2023/04/21 03:43:30;;;;;;;;;;;;;;;;;;4345975;33;20268;-76
2023/04/21 03:45:55;;;;;;;;;;;;;;;;;;4345980;33;19935;-76
2023/04/21 03:48:20;;;;;;;;;;;;;;;;;;4346851;33;20029;-76
2023/04/21 03:50:45;;;;;;;;;;;;;;;;;;4345258;33;20000;-76
2023/04/21 03:53:10;;;;;;;;;;;;;;;;;;4345275;33;19990;-76
2023/04/21 03:55:35;;;;;;;;;;;;;;;;;;4344001;33;19950;-77
2023/04/21 03:58:00;;;;;;;;;;;;;;;;;;4344989;33;19950;-76
2023/04/21 04:00:25;;;;;;;;;;;;;;;;;;4343993;33;20362;-76
2023/04/21 04:02:50;;;;;;;;;;;;;;;;;;4345864;33;19935;-76
2023/04/21 04:05:15;;;;;;;;;;;;;;;;;;4344150;33;19943;-76
2023/04/21 04:07:41;;;;;;;;;;;;;;;;;;4345164;33;19966;-76
2023/04/21 04:10:06;;;;;;;;;;;;;;;;;;4344096;33;20324;-76
2023/04/21 04:12:31;;;;;;;;;;;;;;;;;;4345868;33;19970;-77
2023/04/21 04:14:56;;;;;;;;;;;;;;;;;;4345662;33;19949;-77
2023/04/21 04:17:21;;;;;;;;;;;;;;;;;;4346112;33;19978;-77
2023/04/21 04:19:46;;;;;;;;;;;;;;;;;;4345980;33;20339;-76
2023/04/21 04:22:11;;;;;;;;;;;;;;;;;;4348713;33;19974;-77
2023/04/21 04:24:36;;;;;;;;;;;;;;;;;;4354653;33;19939;-77
2023/04/21 04:27:02;;;;;;;;;;;;;;;;;;4348758;33;19988;-78
2023/04/21 04:29:27;;;;;;;;;;;;;;;;;;4348170;33;19950;-77
2023/04/21 04:31:53;;;;;;;;;;;;;;;;;;4347963;33;20320;-77
2023/04/21 04:34:18;;;;;;;;;;;;;;;;;;4347922;33;20023;-78
2023/04/21 04:36:43;;;;;;;;;;;;;;;;;;4347810;33;19939;-77
2023/04/21 04:39:09;;;;;;;;;;;;;;;;;;4347784;33;20321;-78
2023/04/21 04:41:35;;;;;;;;;;;;;;;;;;4347484;33;19977;-78
2023/04/21 04:44:00;;;;;;;;;;;;;;;;;;4346651;33;20272;-78
2023/04/21 04:46:27;;;;;;;;;;;;;;;;;;4347649;33;19939;-78
2023/04/21 04:48:52;;;;;;;;;;;;;;;;;;4346174;33;19935;-77
2023/04/21 04:51:17;;;;;;;;;;;;;;;;;;4347740;33;19995;-78
2023/04/21 04:53:42;;;;;;;;;;;;;;;;;;4347141;33;19947;-78
2023/04/21 04:56:07;;;;;;;;;;;;;;;;;;4347512;33;19977;-78
2023/04/21 04:58:32;;;;;;;;;;;;;;;;;;4347317;33;20308;-78
2023/04/21 05:00:57;;;;;;;;;;;;;;;;;;4345981;33;20348;-78
2023/04/21 05:03:22;;;;;;;;;;;;;;;;;;4347969;33;20013;-78
2023/04/21 05:05:47;;;;;;;;;;;;;;;;;;4346253;33;19938;-78
2023/04/21 05:08:13;;;;;;;;;;;;;;;;;;4347964;33;19981;-78
2023/04/21 05:10:38;;;;;;;;;;;;;;;;;;4347912;33;19935;-78
2023/04/21 05:13:03;;;;;;;;;;;;;;;;;;4347887;33;19958;-77
2023/04/21 05:15:28;;;;;;;;;;;;;;;;;;4347653;33;19942;-78
2023/04/21 05:17:53;;;;;;;;;;;;;;;;;;4347532;33;19949;-79
2023/04/21 05:20:18;;;;;;;;;;;;;;;;;;4348417;33;19947;-78
2023/04/21 05:22:43;;;;;;;;;;;;;;;;;;4349182;33;19950;-77
2023/04/21 05:25:08;;;;;;;;;;;;;;;;;;4350932;33;19947;-77
2023/04/21 05:27:33;;;;;;;;;;;;;;;;;;4350861;33;20009;-77
2023/04/21 05:29:59;;;;;;;;;;;;;;;;;;4348520;33;20308;-76
2023/04/21 05:32:24;;;;;;;;;;;;;;;;;;4348967;33;19939;-77
2023/04/21 05:34:49;;;;;;;;;;;;;;;;;;4346924;33;19939;-78
2023/04/21 05:37:14;;;;;;;;;;;;;;;;;;4347115;33;20335;-76
2023/04/21 05:39:39;;;;;;;;;;;;;;;;;;4347998;33;19935;-77
2023/04/21 05:42:05;;;;;;;;;;;;;;;;;;4348395;33;19985;-78
2023/04/21 05:44:30;;;;;;;;;;;;;;;;;;4348160;33;19962;-77
2023/04/21 05:46:55;;;;;;;;;;;;;;;;;;4349488;33;19942;-77
2023/04/21 05:49:20;;;;;;;;;;;;;;;;;;4348323;33;19943;-78
2023/04/21 05:51:45;;;;;;;;;;;;;;;;;;4346908;33;20016;-77
2023/04/21 05:54:10;;;;;;;;;;;;;;;;;;4346995;33;20317;-77
2023/04/21 05:56:36;;;;;;;;;;;;;;;;;;4347380;33;20257;-77
2023/04/21 05:59:01;;;;;;;;;;;;;;;;;;4347108;33;19943;-77
2023/04/21 06:01:26;;;;;;;;;;;;;;;;;;4346724;33;19985;-78
2023/04/21 06:03:51;;;;;;;;;;;;;;;;;;4346323;33;20016;-77
2023/04/21 06:06:16;;;;;;;;;;;;;;;;;;4346501;33;19949;-78
2023/04/21 06:08:41;;;;;;;;;;;;;;;;;;4346604;33;19939;-78
2023/04/21 06:11:06;;;;;;;;;;;;;;;;;;4346676;33;19935;-77
2023/04/21 06:13:31;;;;;;;;;;;;;;;;;;4346125;33;19970;-77
2023/04/21 06:15:56;;;;;;;;;;;;;;;;;;4345926;33;20001;-76
2023/04/21 06:18:22;;;;;;;;;;;;;;;;;;4346129;33;20009;-77
2023/04/21 06:20:47;;;;;;;;;;;;;;;;;;4346526;33;20301;-77
2023/04/21 06:23:13;;;;;;;;;;;;;;;;;;4346874;33;20315;-76
2023/04/21 06:25:38;;;;;;;;;;;;;;;;;;4346509;33;20023;-76
2023/04/21 06:28:03;;;;;;;;;;;;;;;;;;4346238;33;20272;-77
2023/04/21 06:30:28;;;;;;;;;;;;;;;;;;4346025;33;19954;-76
2023/04/21 06:32:53;;;;;;;;;;;;;;;;;;4344841;33;19977;-77
2023/04/21 06:35:19;;;;;;;;;;;;;;;;;;4345031;33;19950;-76
2023/04/21 06:37:45;;;;;;;;;;;;;;;;;;4347555;33;19939;-77
2023/04/21 06:40:11;;;;;;;;;;;;;;;;;;4344814;33;19957;-76
2023/04/21 06:42:36;;;;;;;;;;;;;;;;;;4345811;33;20264;-76
2023/04/21 06:45:01;;;;;;;;;;;;;;;;;;4344864;33;20016;-77
2023/04/21 06:47:26;;;;;;;;;;;;;;;;;;4346213;33;20002;-78
2023/04/21 06:49:52;;;;;;;;;;;;;;;;;;4346636;33;20036;-77
2023/04/21 06:52:17;;;;;;;;;;;;;;;;;;4345921;33;19939;-77
2023/04/21 06:54:42;;;;;;;;;;;;;;;;;;4345571;33;20016;-78
2023/04/21 06:57:07;;;;;;;;;;;;;;;;;;4345935;33;19938;-78
2023/04/21 06:59:33;;;;;;;;;;;;;;;;;;4345525;33;20269;-78
2023/04/21 07:01:58;;;;;;;;;;;;;;;;;;4345599;33;20368;-77
2023/04/21 07:04:28;;;;;;;;;;;;;;;;;;4345879;33;20316;-77
2023/04/21 07:06:53;;;;;;;;;;;;;;;;;;4345775;33;20316;-77
2023/04/21 07:09:18;;;;;;;;;;;;;;;;;;4347624;33;19969;-77
2023/04/21 07:11:44;;;;;;;;;;;;;;;;;;4346961;33;19939;-77
2023/04/21 07:14:09;;;;;;;;;;;;;;;;;;4344494;33;19946;-78
2023/04/21 07:16:34;;;;;;;;;;;;;;;;;;4345251;33;20357;-78
2023/04/21 07:19:00;;;;;;;;;;;;;;;;;;4345212;33;19943;-77
2023/04/21 07:21:25;;;;;;;;;;;;;;;;;;4345766;33;19954;-77
2023/04/21 07:23:50;;;;;;;;;;;;;;;;;;4346170;33;19934;-77
2023/04/21 07:26:16;;;;;;;;;;;;;;;;;;4346220;33;19973;-78
2023/04/21 07:28:42;;;;;;;;;;;;;;;;;;4347473;33;19974;-77
2023/04/21 07:31:07;;;;;;;;;;;;;;;;;;4351472;33;19969;-78
2023/04/21 07:33:32;;;;;;;;;;;;;;;;;;4347081;33;20256;-78
2023/04/21 07:35:57;;;;;;;;;;;;;;;;;;4346124;33;19943;-78
2023/04/21 07:38:22;;;;;;;;;;;;;;;;;;4346785;33;19965;-78
2023/04/21 07:40:47;;;;;;;;;;;;;;;;;;4347015;33;19939;-78
2023/04/21 07:43:12;;;;;;;;;;;;;;;;;;4347699;33;19934;-78
2023/04/21 07:45:38;;;;;;;;;;;;;;;;;;4347615;33;19935;-78
2023/04/21 07:48:04;;;;;;;;;;;;;;;;;;4347051;33;19939;-78
2023/04/21 07:50:30;;;;;;;;;;;;;;;;;;4344178;33;19954;-78
2023/04/21 07:52:55;;;;;;;;;;;;;;;;;;4345370;33;19934;-79
2023/04/21 07:55:20;;;;;;;;;;;;;;;;;;4348150;33;19952;-79
2023/04/21 07:57:45;;;;;;;;;;;;;;;;;;4347245;33;19936;-78
2023/04/21 08:00:10;;;;;;;;;;;;;;;;;;4348532;33;20409;-78
2023/04/21 08:02:35;;;;;;;;;;;;;;;;;;4347094;33;19939;-78
2023/04/21 08:05:00;;;;;;;;;;;;;;;;;;4347477;33;19974;-78
2023/04/21 08:07:25;;;;;;;;;;;;;;;;;;4349138;33;19977;-78
2023/04/21 08:09:51;;;;;;;;;;;;;;;;;;4347813;33;19970;-78
2023/04/21 08:12:16;;;;;;;;;;;;;;;;;;4348584;33;20002;-78
2023/04/21 08:14:41;;;;;;;;;;;;;;;;;;4348026;33;19988;-78
2023/04/21 08:17:06;;;;;;;;;;;;;;;;;;4349407;33;19982;-79
2023/04/21 08:19:31;;;;;;;;;;;;;;;;;;4347815;33;20085;-78
2023/04/21 08:21:57;;;;;;;;;;;;;;;;;;4348016;33;19935;-79
2023/04/21 08:24:22;;;;;;;;;;;;;;;;;;4348222;33;19938;-79
2023/04/21 08:26:47;;;;;;;;;;;;;;;;;;4348343;33;19950;-79
2023/04/21 08:29:12;;;;;;;;;;;;;;;;;;4347114;33;19942;-77
2023/04/21 08:31:38;;;;;;;;;;;;;;;;;;4349371;33;19934;-78
2023/04/21 08:34:03;;;;;;;;;;;;;;;;;;4349082;33;19953;-79
2023/04/21 08:36:28;;;;;;;;;;;;;;;;;;4348480;33;20292;-79
2023/04/21 08:38:53;;;;;;;;;;;;;;;;;;4348758;33;19935;-78
2023/04/21 08:41:18;;;;;;;;;;;;;;;;;;4348321;33;20350;-79
2023/04/21 08:43:43;;;;;;;;;;;;;;;;;;4348391;33;19949;-79
2023/04/21 08:46:08;;;;;;;;;;;;;;;;;;4348763;33;20238;-79
2023/04/21 08:48:33;;;;;;;;;;;;;;;;;;4347576;33;19946;-77
2023/04/21 08:50:59;;;;;;;;;;;;;;;;;;4346335;33;19939;-78
2023/04/21 08:53:24;;;;;;;;;;;;;;;;;;4347437;33;20279;-79
2023/04/21 08:55:49;;;;;;;;;;;;;;;;;;4347407;33;19957;-79
2023/04/21 08:58:14;;;;;;;;;;;;;;;;;;4346305;33;19991;-77
2023/04/21 09:00:40;;;;;;;;;;;;;;;;;;4348445;33;19946;-79
2023/04/21 09:03:07;;;;;;;;;;;;;;;;;;4346724;32;19989;-78
2023/04/21 09:05:32;;;;;;;;;;;;;;;;;;4348428;33;19970;-79
2023/04/21 09:07:57;;;;;;;;;;;;;;;;;;4350833;33;20263;-79
2023/04/21 09:10:23;;;;;;;;;;;;;;;;;;4349111;33;20008;-78
2023/04/21 09:12:48;;;;;;;;;;;;;;;;;;4347736;33;19950;-77
2023/04/21 09:15:13;;;;;;;;;;;;;;;;;;4347587;33;19938;-78
2023/04/21 09:17:38;;;;;;;;;;;;;;;;;;4346301;33;20092;-79
2023/04/21 09:20:03;;;;;;;;;;;;;;;;;;4347910;33;19935;-79
2023/04/21 09:22:28;;;;;;;;;;;;;;;;;;4347070;33;20264;-79
2023/04/21 09:24:53;;;;;;;;;;;;;;;;;;4346955;33;19952;-78
2023/04/21 09:27:19;;;;;;;;;;;;;;;;;;4347467;33;19950;-78
2023/04/21 09:29:45;;;;;;;;;;;;;;;;;;4347310;33;19977;-78
2023/04/21 09:32:10;;;;;;;;;;;;;;;;;;4347448;33;20005;-77
2023/04/21 09:34:35;;;;;;;;;;;;;;;;;;4348618;33;19946;-78
2023/04/21 09:37:01;;;;;;;;;;;;;;;;;;4350690;33;19970;-77
2023/04/21 09:39:26;;;;;;;;;;;;;;;;;;4350865;33;19947;-78
2023/04/21 09:41:51;;;;;;;;;;;;;;;;;;4346872;32;19981;-79
2023/04/21 09:44:16;;;;;;;;;;;;;;;;;;4347026;33;19946;-78
2023/04/21 09:46:42;;;;;;;;;;;;;;;;;;4349860;33;20332;-78
2023/04/21 09:49:09;;;;;;;;;;;;;;;;;;4347381;33;19941;-78
2023/04/21 09:51:34;;;;;;;;;;;;;;;;;;4347895;33;19947;-79
2023/04/21 09:53:59;;;;;;;;;;;;;;;;;;4348115;33;20029;-79
2023/04/21 09:56:25;;;;;;;;;;;;;;;;;;4346991;33;19977;-79
2023/04/21 09:58:50;;;;;;;;;;;;;;;;;;4347660;33;19965;-78
2023/04/21 10:01:15;;;;;;;;;;;;;;;;;;4347938;33;19982;-79
2023/04/21 10:03:40;;;;;;;;;;;;;;;;;;4346825;33;19943;-80
2023/04/21 10:06:05;;;;;;;;;;;;;;;;;;4348488;33;20319;-78
2023/04/21 10:08:30;;;;;;;;;;;;;;;;;;4351152;33;19973;-78
2023/04/21 10:10:55;;;;;;;;;;;;;;;;;;4347944;33;19939;-78
2023/04/21 10:13:21;;;;;;;;;;;;;;;;;;4349657;33;19967;-80
2023/04/21 10:15:46;;;;;;;;;;;;;;;;;;4348875;33;19977;-79
2023/04/21 10:18:12;;;;;;;;;;;;;;;;;;4350383;33;19939;-78
2023/04/21 10:20:37;;;;;;;;;;;;;;;;;;4352008;33;19935;-79
2023/04/21 10:23:02;;;;;;;;;;;;;;;;;;4353358;33;19938;-80
2023/04/21 10:25:27;;;;;;;;;;;;;;;;;;4351117;33;19939;-77
2023/04/21 10:27:52;;;;;;;;;;;;;;;;;;4354650;33;19935;-78
2023/04/21 10:30:17;;;;;;;;;;;;;;;;;;4355626;33;19935;-78
2023/04/21 10:32:44;;;;;;;;;;;;;;;;;;4352944;33;19982;-79
2023/04/21 10:35:09;;;;;;;;;;;;;;;;;;4352687;33;19947;-78
2023/04/21 10:37:34;;;;;;;;;;;;;;;;;;4351946;33;19962;-80
2023/04/21 10:39:59;;;;;;;;;;;;;;;;;;4352887;33;19943;-78
2023/04/21 10:42:25;;;;;;;;;;;;;;;;;;4353534;33;19950;-79
2023/04/21 10:44:50;;;;;;;;;;;;;;;;;;4347763;33;19953;-80
2023/04/21 10:47:15;;;;;;;;;;;;;;;;;;4347239;33;19939;-77
2023/04/21 10:49:41;;;;;;;;;;;;;;;;;;4346929;33;19952;-80
2023/04/21 10:52:06;;;;;;;;;;;;;;;;;;4347579;33;19993;-78
2023/04/21 10:54:31;;;;;;;;;;;;;;;;;;4348632;33;19978;-78
2023/04/21 10:56:56;;;;;;;;;;;;;;;;;;4347041;33;19950;-77
2023/04/21 10:59:21;;;;;;;;;;;;;;;;;;4346503;33;19946;-77
2023/04/21 11:01:46;;;;;;;;;;;;;;;;;;4346893;33;19934;-77
2023/04/21 11:04:11;;;;;;;;;;;;;;;;;;4347317;33;20298;-79
2023/04/21 11:06:37;;;;;;;;;;;;;;;;;;4349423;33;19990;-78
2023/04/21 11:09:02;;;;;;;;;;;;;;;;;;4349451;33;19988;-80
2023/04/21 11:11:27;;;;;;;;;;;;;;;;;;4347888;33;19953;-79
2023/04/21 11:13:52;;;;;;;;;;;;;;;;;;4349605;33;19961;-79
2023/04/21 11:16:17;;;;;;;;;;;;;;;;;;4349508;33;19970;-78
2023/04/21 11:18:43;;;;;;;;;;;;;;;;;;4352269;33;19954;-79
2023/04/21 11:21:08;;;;;;;;;;;;;;;;;;4349275;33;19996;-80
2023/04/21 11:23:33;;;;;;;;;;;;;;;;;;4347252;33;19935;-79
2023/04/21 11:25:58;;;;;;;;;;;;;;;;;;4345649;33;19938;-80
2023/04/21 11:28:24;;;;;;;;;;;;;;;;;;4351281;33;19939;-78
2023/04/21 11:30:49;;;;;;;;;;;;;;;;;;4351965;33;19934;-79
2023/04/21 11:33:14;;;;;;;;;;;;;;;;;;4351694;33;19942;-79
2023/04/21 11:35:39;;;;;;;;;;;;;;;;;;4348254;33;20001;-79
2023/04/21 11:38:04;;;;;;;;;;;;;;;;;;4348630;33;19973;-78
2023/04/21 11:40:30;;;;;;;;;;;;;;;;;;4348861;33;19939;-78
2023/04/21 11:42:56;;;;;;;;;;;;;;;;;;4354265;33;20331;-79
2023/04/21 11:45:21;;;;;;;;;;;;;;;;;;4355180;33;20324;-78
2023/04/21 11:47:46;;;;;;;;;;;;;;;;;;4350527;33;19946;-80
2023/04/21 11:50:11;;;;;;;;;;;;;;;;;;4350332;33;19946;-79
2023/04/21 11:52:36;;;;;;;;;;;;;;;;;;4353105;33;19974;-79
2023/04/21 11:55:01;;;;;;;;;;;;;;;;;;4349361;33;19939;-79
2023/04/21 11:57:27;;;;;;;;;;;;;;;;;;4350895;33;19983;-78
2023/04/21 11:59:52;;;;;;;;;;;;;;;;;;4349595;33;19949;-79
2023/04/21 12:02:17;;;;;;;;;;;;;;;;;;4348359;33;20256;-79
2023/04/21 12:04:42;;;;;;;;;;;;;;;;;;4349800;33;19970;-79
2023/04/21 12:07:07;;;;;;;;;;;;;;;;;;4347517;33;20220;-81
2023/04/21 12:09:32;;;;;;;;;;;;;;;;;;4350676;33;19934;-78
2023/04/21 12:11:57;;;;;;;;;;;;;;;;;;4349635;33;19954;-78
2023/04/21 12:14:22;;;;;;;;;;;;;;;;;;4348948;33;19972;-78
2023/04/21 12:16:48;;;;;;;;;;;;;;;;;;4348204;33;20046;-78
2023/04/21 12:19:13;;;;;;;;;;;;;;;;;;4348779;33;20343;-77
2023/04/21 12:21:38;;;;;;;;;;;;;;;;;;4349344;33;19939;-78
2023/04/21 12:24:03;;;;;;;;;;;;;;;;;;4347313;33;19953;-79
2023/04/21 12:26:29;;;;;;;;;;;;;;;;;;4348362;33;19938;-79
2023/04/21 12:28:54;;;;;;;;;;;;;;;;;;4348601;33;19947;-79
2023/04/21 12:31:19;;;;;;;;;;;;;;;;;;4348177;33;20304;-78
2023/04/21 12:33:44;;;;;;;;;;;;;;;;;;4348799;33;20314;-79
2023/04/21 12:36:10;;;;;;;;;;;;;;;;;;4348704;33;20312;-79
2023/04/21 12:38:35;;;;;;;;;;;;;;;;;;4349032;33;20346;-79
2023/04/21 12:41:00;;;;;;;;;;;;;;;;;;4349546;33;19996;-78
2023/04/21 12:43:25;;;;;;;;;;;;;;;;;;4348212;33;20345;-79
2023/04/21 12:45:51;;;;;;;;;;;;;;;;;;4351325;33;19943;-78
2023/04/21 12:48:16;;;;;;;;;;;;;;;;;;4353036;32;19934;-79
2023/04/21 12:50:41;;;;;;;;;;;;;;;;;;4348746;33;19968;-79
2023/04/21 12:53:06;;;;;;;;;;;;;;;;;;4347912;33;20327;-78
2023/04/21 12:55:31;;;;;;;;;;;;;;;;;;4348535;33;19989;-78
2023/04/21 12:57:56;;;;;;;;;;;;;;;;;;4348637;33;19946;-77
2023/04/21 13:00:22;;;;;;;;;;;;;;;;;;4346831;33;19994;-79
2023/04/21 13:02:47;;;;;;;;;;;;;;;;;;4346329;33;19943;-79
2023/04/21 13:05:12;;;;;;;;;;;;;;;;;;4346693;33;20019;-77
2023/04/21 13:07:37;;;;;;;;;;;;;;;;;;4347025;33;19938;-78
2023/04/21 13:10:03;;;;;;;;;;;;;;;;;;4348719;33;19970;-77
2023/04/21 13:12:28;;;;;;;;;;;;;;;;;;4352118;33;19981;-78
2023/04/21 13:14:54;;;;;;;;;;;;;;;;;;4347970;33;19949;-79
2023/04/21 13:17:19;;;;;;;;;;;;;;;;;;4347718;33;20260;-79
2023/04/21 13:19:44;;;;;;;;;;;;;;;;;;4346664;33;19973;-79
2023/04/21 13:22:09;;;;;;;;;;;;;;;;;;4349329;33;19951;-79
2023/04/21 13:24:34;;;;;;;;;;;;;;;;;;4348918;33;19950;-77
2023/04/21 13:27:00;;;;;;;;;;;;;;;;;;4348576;33;19985;-78
2023/04/21 13:29:28;;;;;;;;;;;;;;;;;;4352916;33;19938;-78
2023/04/21 13:31:53;;;;;;;;;;;;;;;;;;4331643;32;19935;-78
2023/04/21 13:34:18;;;;;;;;;;;;;;;;;;4335564;33;19973;-78
2023/04/21 13:36:44;;;;;;;;;;;;;;;;;;4332624;33;19935;-79
2023/04/21 13:39:09;;;;;;;;;;;;;;;;;;4333271;33;19947;-78
2023/04/21 13:41:34;;;;;;;;;;;;;;;;;;4332809;33;19939;-78
2023/04/21 13:44:00;;;;;;;;;;;;;;;;;;4336053;33;19940;-78
2023/04/21 13:46:25;;;;;;;;;;;;;;;;;;4336334;33;19950;-77
2023/04/21 13:48:50;;;;;;;;;;;;;;;;;;4337800;33;19942;-79
2023/04/21 13:51:15;;;;;;;;;;;;;;;;;;4340825;33;19943;-79
2023/04/21 13:53:40;;;;;;;;;;;;;;;;;;4333957;33;19939;-79
2023/04/21 13:56:05;;;;;;;;;;;;;;;;;;4333179;33;19943;-77
2023/04/21 13:58:31;;;;;;;;;;;;;;;;;;4333403;33;19959;-78
2023/04/21 14:00:56;;;;;;;;;;;;;;;;;;4331124;33;19942;-79
2023/04/21 14:03:21;;;;;;;;;;;;;;;;;;4332413;33;20265;-79
2023/04/21 14:05:46;;;;;;;;;;;;;;;;;;4331745;33;20006;-78
2023/04/21 14:08:11;;;;;;;;;;;;;;;;;;4331957;33;20264;-78
2023/04/21 14:10:36;;;;;;;;;;;;;;;;;;4330649;33;19972;-79
2023/04/21 14:13:01;;;;;;;;;;;;;;;;;;4330800;33;20261;-78
2023/04/21 14:15:26;;;;;;;;;;;;;;;;;;4334973;33;19947;-80
2023/04/21 14:17:51;;;;;;;;;;;;;;;;;;4332776;33;19935;-79
2023/04/21 14:20:17;;;;;;;;;;;;;;;;;;4330440;33;19939;-79
2023/04/21 14:22:42;;;;;;;;;;;;;;;;;;4331387;33;20354;-78
2023/04/21 14:25:07;;;;;;;;;;;;;;;;;;4331805;33;19958;-77
2023/04/21 14:27:32;;;;;;;;;;;;;;;;;;4330889;33;20346;-80
2023/04/21 14:29:59;;;;;;;;;;;;;;;;;;4332860;33;19943;-79
2023/04/21 14:32:24;;;;;;;;;;;;;;;;;;4331698;33;19946;-80
2023/04/21 14:34:52;;;;;;;;;;;;;;;;;;4334493;33;19939;-79
2023/04/21 14:37:17;;;;;;;;;;;;;;;;;;4333996;33;20272;-79
2023/04/21 14:39:42;;;;;;;;;;;;;;;;;;4331570;33;20034;-79
2023/04/21 14:42:07;;;;;;;;;;;;;;;;;;4335060;33;19954;-78
2023/04/21 14:44:34;;;;;;;;;;;;;;;;;;4332164;33;20001;-78
2023/04/21 14:46:59;;;;;;;;;;;;;;;;;;4333091;33;19939;-79
2023/04/21 14:49:24;;;;;;;;;;;;;;;;;;4337380;33;19939;-80
2023/04/21 14:51:50;;;;;;;;;;;;;;;;;;4332039;33;19998;-77
2023/04/21 14:54:15;;;;;;;;;;;;;;;;;;4332789;33;19931;-78
2023/04/21 14:56:40;;;;;;;;;;;;;;;;;;4332362;33;19969;-80
2023/04/21 14:59:06;;;;;;;;;;;;;;;;;;4332446;33;19940;-78
2023/04/21 15:01:31;;;;;;;;;;;;;;;;;;4333611;33;19981;-78
2023/04/21 15:03:58;;;;;;;;;;;;;;;;;;4331557;33;19982;-78
2023/04/21 15:06:23;;;;;;;;;;;;;;;;;;4330953;33;19952;-77
2023/04/21 15:08:48;;;;;;;;;;;;;;;;;;4331722;33;19976;-78
2023/04/21 15:11:13;;;;;;;;;;;;;;;;;;4332873;33;19959;-80
2023/04/21 15:13:39;;;;;;;;;;;;;;;;;;4332457;33;19935;-77
2023/04/21 15:16:05;;;;;;;;;;;;;;;;;;4331915;33;19961;-78
2023/04/21 15:18:30;;;;;;;;;;;;;;;;;;4330332;33;19940;-78
2023/04/21 15:20:56;;;;;;;;;;;;;;;;;;4331528;33;19969;-78
2023/04/21 15:23:21;;;;;;;;;;;;;;;;;;4330484;33;19944;-77
2023/04/21 15:25:46;;;;;;;;;;;;;;;;;;4332291;33;19981;-78
2023/04/21 15:28:11;;;;;;;;;;;;;;;;;;4332214;33;19947;-77
2023/04/21 15:30:37;;;;;;;;;;;;;;;;;;4333180;33;20343;-77
2023/04/21 15:33:02;;;;;;;;;;;;;;;;;;4338057;33;20017;-77
2023/04/21 15:35:27;;;;;;;;;;;;;;;;;;4335948;33;19959;-77
2023/04/21 15:37:52;;;;;;;;;;;;;;;;;;4332984;33;19981;-77
2023/04/21 15:40:17;;;;;;;;;;;;;;;;;;4331152;33;19935;-77
2023/04/21 15:42:42;;;;;;;;;;;;;;;;;;4330295;33;19991;-78
2023/04/21 15:45:07;;;;;;;;;;;;;;;;;;4331682;33;20312;-79
2023/04/21 15:47:32;;;;;;;;;;;;;;;;;;4330850;33;20411;-79
2023/04/21 15:49:57;;;;;;;;;;;;;;;;;;4330825;33;19950;-78
2023/04/21 15:52:23;;;;;;;;;;;;;;;;;;4334408;33;19981;-78
2023/04/21 15:54:48;;;;;;;;;;;;;;;;;;4336038;33;20324;-80
2023/04/21 15:57:13;;;;;;;;;;;;;;;;;;4332451;33;19940;-79
2023/04/21 15:59:38;;;;;;;;;;;;;;;;;;4329689;33;20360;-80
2023/04/21 16:02:04;;;;;;;;;;;;;;;;;;4330856;33;19949;-78
2023/04/21 16:04:29;;;;;;;;;;;;;;;;;;4329983;33;19954;-77
2023/04/21 16:06:54;;;;;;;;;;;;;;;;;;4330940;33;19935;-78
2023/04/21 16:09:20;;;;;;;;;;;;;;;;;;4330513;33;20280;-78
2023/04/21 16:11:45;;;;;;;;;;;;;;;;;;4331771;33;19978;-78
2023/04/21 16:14:15;;;;;;;;;;;;;;;;;;4331854;33;20302;-78
2023/04/21 16:16:40;;;;;;;;;;;;;;;;;;4331864;33;19939;-80
2023/04/21 16:19:05;;;;;;;;;;;;;;;;;;4333637;33;19946;-78
2023/04/21 16:21:30;;;;;;;;;;;;;;;;;;4335204;33;19970;-78
2023/04/21 16:23:55;;;;;;;;;;;;;;;;;;4334055;33;19945;-79
2023/04/21 16:26:21;;;;;;;;;;;;;;;;;;4334916;33;19966;-79
2023/04/21 16:28:46;;;;;;;;;;;;;;;;;;4333205;33;20229;-78
2023/04/21 16:31:11;;;;;;;;;;;;;;;;;;4334621;33;19988;-77